Time;durP1;ratioP1;P1;durP2;ratioP2;P2;SDS_P1;SDS_P2;PMS_P1;PMS_P2;Temp;Humidity;BMP_temperature;BMP_pressure;BME280_temperature;BME280_humidity;BME280_pressure;Samples;Min_cycle;Max_cycle;Signal;HPM_P1;HPM_P2
2021/06/12 00:02:25;;;;;;;16.57;7.40;;;;;;;18.95;78.63;101127.59;1644944;87;21213;-73
2021/06/12 00:04:59;;;;;;;18.07;7.20;;;;;;;18.92;78.63;101131.59;1644872;86;21225;-78
2021/06/12 00:07:31;;;;;;;16.87;7.15;;;;;;;18.89;78.68;101118.96;1645334;87;21407;-69
2021/06/12 00:10:11;;;;;;;18.40;8.28;;;;;;;18.89;78.74;101118.15;1645222;86;21197;-76
2021/06/12 00:12:44;;;;;;;17.40;7.47;;;;;;;18.87;78.75;101122.66;1644831;86;21210;-68
2021/06/12 00:15:20;;;;;;;19.80;7.75;;;;;;;18.85;78.66;101119.88;1644937;86;21679;-67
2021/06/12 00:17:53;;;;;;;14.78;6.95;;;;;;;18.82;78.73;101119.07;1644967;87;22874;-70
2021/06/12 00:20:30;;;;;;;15.60;7.58;;;;;;;18.81;78.78;101121.07;1645105;87;21289;-70
2021/06/12 00:23:03;;;;;;;12.80;7.37;;;;;;;18.82;78.85;101121.33;1644893;87;21435;-69
2021/06/12 00:25:43;;;;;;;18.30;7.92;;;;;;;18.82;78.87;101121.88;1644737;87;21760;-68
2021/06/12 00:28:11;;;;;;;20.90;8.35;;;;;;;18.79;78.90;101125.33;1644887;87;21209;-72
2021/06/12 00:30:44;;;;;;;19.55;7.78;;;;;;;18.78;78.93;101127.88;1644935;86;21403;-72
2021/06/12 00:33:17;;;;;;;20.03;7.90;;;;;;;18.78;79.04;101128.70;1644917;87;21799;-70
2021/06/12 00:35:49;;;;;;;26.80;8.73;;;;;;;18.75;79.00;101126.50;1645086;87;21301;-69
2021/06/12 00:38:22;;;;;;;14.25;8.00;;;;;;;18.78;79.18;101129.28;1645124;86;21221;-70
2021/06/12 00:40:54;;;;;;;21.97;9.00;;;;;;;18.79;79.19;101127.58;1644971;86;21214;-70
2021/06/12 00:43:27;;;;;;;16.42;9.73;;;;;;;18.79;79.12;101126.73;1646951;85;21203;-70
2021/06/12 00:45:59;;;;;;;19.73;8.80;;;;;;;18.77;79.03;101131.25;1640653;85;21283;-71
2021/06/12 00:48:32;;;;;;;;;;;;;;;18.74;79.15;101127.66;1663485;84;21347;-79
2021/06/12 00:51:04;;;;;;;23.90;10.63;;;;;;;18.76;79.10;101123.10;1658404;85;20310;-68
2021/06/12 00:53:43;;;;;;;25.30;11.83;;;;;;;18.76;79.12;101124.51;1660185;84;21256;-68
2021/06/12 00:56:18;;;;;;;25.50;11.25;;;;;;;18.76;78.97;101125.91;1661366;85;21272;-68
2021/06/12 00:58:52;;;;;;;21.85;11.97;;;;;;;18.75;78.84;101122.28;1640889;87;21925;-71
2021/06/12 01:01:27;;;;;;;24.32;12.45;;;;;;;18.73;78.73;101113.88;1637452;87;21739;-69
2021/06/12 01:04:01;;;;;;;22.50;13.83;;;;;;;18.71;78.79;101113.36;1640470;87;21444;-71
2021/06/12 01:06:33;;;;;;;26.10;15.15;;;;;;;18.64;78.80;101110.91;1640507;87;21395;-70
2021/06/12 01:09:06;;;;;;;23.20;13.13;;;;;;;18.61;78.82;101114.34;1641464;86;21762;-69
2021/06/12 01:11:54;;;;;;;22.62;12.15;;;;;;;18.58;78.86;101123.93;1640634;86;21363;-77
2021/06/12 01:14:27;;;;;;;22.10;12.50;;;;;;;18.55;79.01;101125.40;1621918;86;21197;-69
2021/06/12 01:17:14;;;;;;;27.03;13.20;;;;;;;18.53;79.02;101126.25;1640740;86;21361;-69
2021/06/12 01:19:57;;;;;;;31.80;13.28;;;;;;;18.51;79.08;101128.54;1640744;86;21218;-70
2021/06/12 01:22:43;;;;;;;26.07;13.58;;;;;;;18.48;79.12;101128.31;1639498;87;21946;-69
2021/06/12 01:26:04;;;;;;;30.80;12.40;;;;;;;18.43;79.16;101126.97;1640104;87;21407;-68
2021/06/12 01:29:17;;;;;;;25.27;12.75;;;;;;;18.37;79.27;101122.55;1621603;87;21746;-69
2021/06/12 01:31:50;;;;;;;28.92;14.20;;;;;;;18.34;79.49;101125.39;1659047;86;21356;-70
2021/06/12 01:34:24;;;;;;;20.08;12.33;;;;;;;18.36;79.47;101119.47;1670211;86;21344;-69
2021/06/12 01:36:57;;;;;;;25.77;12.68;;;;;;;18.35;79.44;101123.43;1670334;86;21748;-69
2021/06/12 01:39:29;;;;;;;29.77;12.63;;;;;;;18.33;79.41;101121.47;1670720;86;21217;-71
2021/06/12 01:42:03;;;;;;;24.32;12.68;;;;;;;18.31;79.43;101118.13;1670555;84;21368;-68
2021/06/12 01:44:35;;;;;;;;;;;;;;;18.34;79.35;101121.76;1663525;86;21402;-68
2021/06/12 01:47:08;;;;;;;23.32;13.68;;;;;;;18.35;79.20;101115.00;1657676;86;20196;-68
2021/06/12 01:49:43;;;;;;;23.45;12.85;;;;;;;18.31;79.15;101117.58;1670947;85;21313;-68
2021/06/12 01:52:15;;;;;;;27.77;13.03;;;;;;;18.28;79.07;101113.91;1670688;86;21846;-68
2021/06/12 01:54:48;;;;;;;39.87;16.00;;;;;;;18.28;79.18;101120.12;1671128;86;21332;-68
2021/06/12 01:57:21;;;;;;;33.28;15.93;;;;;;;18.26;79.27;101115.34;1670627;86;21639;-67
2021/06/12 01:59:53;;;;;;;45.78;17.70;;;;;;;18.26;79.13;101116.75;1670459;86;21356;-69
2021/06/12 02:02:26;;;;;;;42.93;18.75;;;;;;;18.25;79.06;101114.53;1647045;86;21707;-68
2021/06/12 02:04:59;;;;;;;37.30;19.12;;;;;;;18.22;78.99;101119.33;1670776;86;21221;-67
2021/06/12 02:07:31;;;;;;;41.02;18.52;;;;;;;18.18;79.01;101128.67;1670801;85;21396;-67
2021/06/12 02:10:05;;;;;;;47.93;20.97;;;;;;;18.15;79.10;101130.66;1670523;84;21392;-67
2021/06/12 02:12:37;;;;;;;61.35;23.35;;;;;;;18.16;79.11;101130.95;1670832;86;21249;-68
2021/06/12 02:15:12;;;;;;;54.07;20.60;;;;;;;18.15;79.01;101134.33;1670875;86;21379;-67
2021/06/12 02:17:47;;;;;;;49.48;21.60;;;;;;;18.12;79.04;101129.31;1670474;86;21395;-67
2021/06/12 02:20:20;;;;;;;53.92;22.80;;;;;;;18.10;79.20;101126.53;1670438;86;21209;-66
2021/06/12 02:22:54;;;;;;;54.80;24.47;;;;;;;18.11;79.28;101128.20;1670790;86;21467;-68
2021/06/12 02:25:26;;;;;;;;;;;;;;;18.14;79.23;101136.02;1673153;86;21375;-69
2021/06/12 02:28:10;;;;;;;50.12;21.70;;;;;;;18.15;79.20;101139.95;1670662;84;20191;-68
2021/06/12 02:30:46;;;;;;;45.17;18.15;;;;;;;18.13;79.15;101137.16;1667652;86;21375;-68
2021/06/12 02:33:18;;;;;;;40.23;18.60;;;;;;;18.11;79.17;101150.69;1673160;85;21240;-68
2021/06/12 02:35:51;;;;;;;44.80;18.87;;;;;;;18.10;79.30;101146.21;1673773;86;21229;-67
2021/06/12 02:38:24;;;;;;;41.53;18.00;;;;;;;18.09;79.29;101154.34;1674141;86;21352;-69
2021/06/12 02:41:00;;;;;;;43.48;18.17;;;;;;;18.07;79.34;101154.67;1673847;86;21277;-67
2021/06/12 02:43:34;;;;;;;40.03;15.95;;;;;;;18.06;79.41;101159.17;1673465;86;21253;-68
2021/06/12 02:46:15;;;;;;;41.83;15.90;;;;;;;18.08;79.36;101158.30;1673665;86;21351;-67
2021/06/12 02:48:52;;;;;;;35.52;15.50;;;;;;;18.12;79.31;101160.23;1672265;86;21363;-67
2021/06/12 02:51:25;;;;;;;31.48;15.28;;;;;;;18.17;79.27;101163.55;1673420;86;21505;-69
2021/06/12 02:53:59;;;;;;;41.00;14.90;;;;;;;18.24;79.22;101169.64;1673348;86;21225;-67
2021/06/12 02:56:35;;;;;;;36.98;15.35;;;;;;;18.28;79.09;101164.52;1673859;86;21292;-67
2021/06/12 02:59:12;;;;;;;31.45;12.53;;;;;;;18.30;78.96;101161.42;1673741;86;21359;-67
2021/06/12 03:01:44;;;;;;;37.75;14.90;;;;;;;18.33;78.90;101167.86;1612336;87;21357;-68
2021/06/12 03:04:18;;;;;;;33.18;13.15;;;;;;;18.38;78.81;101165.00;1611817;87;21399;-66
2021/06/12 03:06:51;;;;;;;29.70;13.08;;;;;;;18.41;78.77;101167.22;1638629;86;21391;-68
2021/06/12 03:09:24;;;;;;;24.92;11.70;;;;;;;18.43;78.54;101166.34;1638617;87;21395;-68
2021/06/12 03:11:57;;;;;;;23.42;10.28;;;;;;;18.45;78.55;101172.50;1638688;87;21420;-69
2021/06/12 03:14:42;;;;;;;22.58;10.08;;;;;;;18.48;78.50;101167.69;1638565;87;21431;-68
2021/06/12 03:17:14;;;;;;;24.30;10.58;;;;;;;18.51;78.58;101174.10;1638687;87;21209;-69
2021/06/12 03:19:47;;;;;;;30.00;11.63;;;;;;;18.52;78.71;101172.41;1638848;87;21368;-69
2021/06/12 03:22:20;;;;;;;23.67;10.43;;;;;;;18.59;78.84;101165.84;1638756;87;21435;-69
2021/06/12 03:24:53;;;;;;;22.32;9.65;;;;;;;18.63;78.95;101175.91;1638804;87;21727;-68
2021/06/12 03:27:26;;;;;;;18.65;9.85;;;;;;;18.65;79.00;101178.69;1630091;87;21229;-68
2021/06/12 03:30:02;;;;;;;23.55;10.13;;;;;;;18.70;79.27;101177.78;1605309;89;21700;-68
2021/06/12 03:32:35;;;;;;;34.08;12.07;;;;;;;18.76;79.38;101177.98;1602948;88;21375;-66
2021/06/12 03:35:09;;;;;;;20.12;9.38;;;;;;;18.82;79.45;101184.65;1618681;86;21262;-67
2021/06/12 03:37:42;;;;;;;18.62;8.35;;;;;;;18.87;79.48;101182.33;1671102;86;21711;-67
2021/06/12 03:40:15;;;;;;;20.25;9.28;;;;;;;18.89;79.67;101182.88;1646692;86;21304;-68
2021/06/12 03:42:48;;;;;;;21.10;10.43;;;;;;;18.95;79.81;101174.63;1646503;87;21740;-69
2021/06/12 03:45:23;;;;;;;19.67;9.50;;;;;;;19.00;79.97;101174.53;1646079;87;21253;-68
2021/06/12 03:47:55;;;;;;;22.85;9.28;;;;;;;19.09;79.94;101181.98;1646308;87;21371;-68
2021/06/12 03:50:28;;;;;;;14.90;7.67;;;;;;;19.15;79.95;101187.80;1646375;86;21265;-67
2021/06/12 03:53:01;;;;;;;16.42;8.33;;;;;;;19.19;80.09;101184.65;1646871;87;21256;-67
2021/06/12 03:55:34;;;;;;;;;;;;;;;19.28;80.30;101182.02;1648740;87;21422;-68
2021/06/12 03:58:07;;;;;;;25.17;10.98;;;;;;;19.38;80.26;101190.31;1646478;86;20228;-67
2021/06/12 04:00:39;;;;;;;14.53;7.37;;;;;;;19.48;80.01;101187.30;1646874;86;21212;-68
2021/06/12 04:03:12;;;;;;;12.82;7.70;;;;;;;19.62;79.42;101190.44;1646554;86;21978;-67
2021/06/12 04:05:45;;;;;;;19.45;8.45;;;;;;;19.85;79.79;101192.84;1646444;86;21348;-67
2021/06/12 04:08:19;;;;;;;22.25;9.25;;;;;;;20.25;79.86;101178.83;1628379;87;21351;-68
2021/06/12 04:10:53;;;;;;;18.30;8.13;;;;;;;20.84;79.03;101188.58;1646306;87;21343;-68
2021/06/12 04:13:26;;;;;;;16.65;9.10;;;;;;;21.51;77.39;101187.55;1646513;87;21216;-68
2021/06/12 04:15:59;;;;;;;19.73;8.50;;;;;;;22.23;74.92;101190.45;1646378;87;21213;-67
2021/06/12 04:18:33;;;;;;;23.38;9.03;;;;;;;22.94;72.57;101192.05;1646383;87;21723;-68
2021/06/12 04:21:07;;;;;;;21.23;7.70;;;;;;;23.68;70.23;101186.51;1648125;86;21324;-71
2021/06/12 04:23:40;;;;;;;14.10;8.40;;;;;;;24.39;68.02;101185.69;1651370;86;21343;-71
2021/06/12 04:26:12;;;;;;;13.85;7.70;;;;;;;25.03;65.87;101179.50;1646404;86;21897;-71
2021/06/12 04:28:46;;;;;;;11.93;7.20;;;;;;;25.60;63.66;101188.27;1666833;86;21399;-71
2021/06/12 04:31:19;;;;;;;13.88;6.97;;;;;;;26.18;61.54;101196.56;1662594;86;21277;-70
2021/06/12 04:33:52;;;;;;;12.18;6.58;;;;;;;26.73;59.56;101189.19;1646931;86;21398;-71
2021/06/12 04:36:25;;;;;;;11.08;5.75;;;;;;;27.23;58.04;101188.78;1660260;85;21359;-71
2021/06/12 04:38:59;;;;;;;10.53;6.72;;;;;;;27.57;56.41;101181.31;1674403;85;21707;-71
2021/06/12 04:41:32;;;;;;;11.68;6.97;;;;;;;27.98;55.55;101187.23;1673677;86;21735;-70
2021/06/12 04:44:05;;;;;;;;;;;;;;;28.43;54.34;101187.70;1676224;85;21423;-72
2021/06/12 04:46:42;;;;;;;13.22;8.15;;;;;;;28.74;53.28;101187.70;1673721;85;20318;-75
2021/06/12 04:49:17;;;;;;;17.45;8.25;;;;;;;29.04;52.15;101191.75;1673688;86;21347;-71
2021/06/12 04:51:50;;;;;;;20.80;7.62;;;;;;;29.32;51.60;101193.23;1673714;84;21336;-71
2021/06/12 04:54:25;;;;;;;12.40;7.78;;;;;;;29.53;50.67;101188.00;1664742;86;21897;-71
2021/06/12 04:57:00;;;;;;;13.25;7.10;;;;;;;29.73;50.63;101195.42;1646474;85;21256;-71
2021/06/12 04:59:32;;;;;;;17.10;8.28;;;;;;;29.86;49.85;101191.19;1646534;86;21221;-71
2021/06/12 05:02:05;;;;;;;12.30;6.80;;;;;;;30.06;49.79;101196.27;1647632;86;21268;-71
2021/06/12 05:04:38;;;;;;;9.45;5.75;;;;;;;30.29;49.55;101190.84;1646205;87;21205;-72
2021/06/12 05:07:12;;;;;;;8.18;4.50;;;;;;;30.45;48.82;101198.70;1646121;87;21355;-73
2021/06/12 05:09:45;;;;;;;9.60;3.80;;;;;;;30.56;46.67;101196.86;1646402;86;21306;-70
2021/06/12 05:12:19;;;;;;;6.90;3.17;;;;;;;30.59;46.71;101198.98;1670318;84;21383;-73
2021/06/12 05:15:01;;;;;;;8.83;3.62;;;;;;;30.75;46.56;101196.81;1673976;81;21715;31
2021/06/12 05:17:32;;;;;;;10.68;3.62;;;;;;;30.98;46.35;101194.75;1630638;87;21281;-73
2021/06/12 05:20:06;;;;;;;6.47;4.12;;;;;;;31.22;46.15;101203.55;1641948;87;21921;-73
2021/06/12 05:22:38;;;;;;;4.80;3.00;;;;;;;31.47;46.30;101196.95;1631091;87;21727;-75
2021/06/12 05:25:12;;;;;;;6.97;3.62;;;;;;;31.73;45.41;101198.36;1616474;89;21265;-74
2021/06/12 05:27:46;;;;;;;15.58;5.50;;;;;;;31.89;44.05;101196.11;1616639;89;22326;-74
2021/06/12 05:30:20;;;;;;;16.25;6.12;;;;;;;31.99;43.87;101198.30;1621855;87;21293;-73
2021/06/12 05:32:53;;;;;;;15.32;5.92;;;;;;;32.01;43.92;101195.85;1641853;87;21226;-75
2021/06/12 05:35:26;;;;;;;20.85;6.42;;;;;;;32.05;43.77;101202.48;1626992;87;21293;-75
2021/06/12 05:37:59;;;;;;;27.48;5.87;;;;;;;32.13;43.92;101196.18;1614145;89;21222;-77
2021/06/12 05:40:31;;;;;;;16.48;6.45;;;;;;;32.10;43.55;101198.42;1598982;87;21861;-75
2021/06/12 05:43:04;;;;;;;9.15;4.92;;;;;;;31.99;43.85;101198.90;1620719;87;21190;-71
2021/06/12 05:45:38;;;;;;;18.07;6.12;;;;;;;31.98;44.00;101211.62;1642376;87;21865;-74
2021/06/12 05:48:11;;;;;;;16.97;4.92;;;;;;;31.94;43.83;101210.15;1641044;87;21709;-73
2021/06/12 05:50:45;;;;;;;12.18;4.72;;;;;;;31.95;44.39;101200.89;1642199;87;21217;-74
2021/06/12 05:53:18;;;;;;;13.13;4.75;;;;;;;31.98;44.17;101203.00;1642088;87;21320;-74
2021/06/12 05:55:51;;;;;;;9.33;4.65;;;;;;;32.11;44.55;101208.10;1641826;87;21266;-74
2021/06/12 05:58:24;;;;;;;11.88;5.20;;;;;;;32.27;43.65;101211.58;1639769;87;21847;-75
2021/06/12 06:00:57;;;;;;;12.03;4.78;;;;;;;32.30;42.72;101206.49;1640682;87;21234;-73
2021/06/12 06:03:33;;;;;;;13.05;5.05;;;;;;;32.29;42.85;101212.03;1642386;87;21732;-77
2021/06/12 06:06:07;;;;;;;11.78;5.10;;;;;;;32.35;43.74;101211.89;1624267;87;21194;-74
2021/06/12 06:08:41;;;;;;;16.82;5.42;;;;;;;32.47;43.75;101211.61;1620597;87;21214;-76
2021/06/12 06:11:18;;;;;;;13.83;5.30;;;;;;;32.67;42.94;101213.63;1642275;87;21194;-75
2021/06/12 06:13:51;;;;;;;14.93;6.47;;;;;;;32.81;41.82;101211.74;1641268;87;21257;-73
2021/06/12 06:16:24;;;;;;;28.10;6.75;;;;;;;32.83;41.50;101208.48;1642840;86;21799;-70
2021/06/12 06:18:57;;;;;;;16.82;8.15;;;;;;;32.87;41.58;101209.34;1603814;88;21241;-74
2021/06/12 06:21:29;;;;;;;17.87;6.37;;;;;;;32.91;41.71;101205.86;1600353;89;21224;-73
2021/06/12 06:24:02;;;;;;;12.13;5.00;;;;;;;33.01;41.15;101203.69;1602158;89;21276;-76
2021/06/12 06:26:35;;;;;;;10.23;4.70;;;;;;;33.04;41.45;101197.95;1601330;88;21252;-76
2021/06/12 06:29:08;;;;;;;10.68;4.85;;;;;;;33.16;41.73;101196.79;1602056;89;21248;-76
2021/06/12 06:31:44;;;;;;;8.08;4.67;;;;;;;33.29;42.12;101191.78;1602466;89;21752;-73
2021/06/12 06:34:16;;;;;;;13.35;4.03;;;;;;;33.34;41.22;101197.17;1601905;89;21230;-75
2021/06/12 06:36:50;;;;;;;6.87;3.90;;;;;;;33.33;41.40;101195.52;1589357;89;21824;-75
2021/06/12 06:39:25;;;;;;;9.35;3.60;;;;;;;33.53;41.73;101191.09;1602642;89;21237;-72
2021/06/12 06:41:57;;;;;;;6.05;3.22;;;;;;;33.66;39.93;101196.72;1590232;89;21288;-73
2021/06/12 06:44:35;;;;;;;4.90;3.40;;;;;;;33.64;38.90;101189.70;1604375;88;21411;-67
2021/06/12 06:47:08;;;;;;;9.90;4.28;;;;;;;33.57;38.90;101194.84;1592392;89;21237;-71
2021/06/12 06:49:42;;;;;;;5.42;3.60;;;;;;;33.45;39.65;101193.73;1614661;88;21206;-72
2021/06/12 06:52:16;;;;;;;8.53;3.30;;;;;;;33.35;40.36;101189.33;1608986;88;21411;-72
2021/06/12 06:54:48;;;;;;;8.43;3.60;;;;;;;33.20;39.65;101196.21;1605836;88;21436;-72
2021/06/12 06:57:21;;;;;;;6.17;3.58;;;;;;;33.19;39.21;101200.33;1609021;88;21400;-76
2021/06/12 06:59:55;;;;;;;4.90;3.75;;;;;;;33.15;39.76;101197.42;1607123;88;21366;-78
2021/06/12 07:02:27;;;;;;;;;;;;;;;33.21;39.95;101198.70;1606682;89;21260;-76
2021/06/12 07:05:01;;;;;;;17.07;5.83;;;;;;;33.24;40.08;101197.08;1601749;88;20197;-71
2021/06/12 07:07:34;;;;;;;16.05;6.35;;;;;;;33.23;40.30;101196.23;1608703;87;21265;-74
2021/06/12 07:10:08;;;;;;;16.05;5.95;;;;;;;33.17;40.61;101194.11;1601497;89;21238;-76
2021/06/12 07:12:41;;;;;;;11.95;5.17;;;;;;;33.08;40.21;101200.25;1596389;89;21270;-75
2021/06/12 07:15:17;;;;;;;12.00;5.67;;;;;;;33.07;39.99;101198.58;1610491;88;21242;-74
2021/06/12 07:17:53;;;;;;;15.25;5.70;;;;;;;33.01;40.06;101199.37;1601050;89;21390;-75
2021/06/12 07:20:26;;;;;;;12.07;5.67;;;;;;;32.94;39.37;101200.13;1595527;88;21272;-74
2021/06/12 07:23:00;;;;;;;18.32;6.28;;;;;;;32.86;40.58;101198.42;1605510;89;21200;-74
2021/06/12 07:25:34;;;;;;;22.55;5.85;;;;;;;32.79;40.59;101191.17;1605499;89;21229;-73
2021/06/12 07:28:07;;;;;;;14.90;6.20;;;;;;;32.78;40.48;101194.44;1600084;88;21579;-74
2021/06/12 07:30:41;;;;;;;14.00;6.53;;;;;;;32.60;40.52;101198.58;1594434;89;21243;-74
2021/06/12 07:33:18;;;;;;;14.25;5.70;;;;;;;32.44;40.48;101203.75;1590981;89;21261;-74
2021/06/12 07:35:54;;;;;;;16.50;6.10;;;;;;;32.39;40.56;101204.11;1606097;89;21261;-74
2021/06/12 07:38:29;;;;;;;8.38;4.80;;;;;;;32.39;40.80;101200.42;1601081;89;21242;-73
2021/06/12 07:41:03;;;;;;;11.43;5.22;;;;;;;32.25;40.85;101194.50;1594862;89;21247;-73
2021/06/12 07:43:35;;;;;;;8.85;5.25;;;;;;;32.22;42.04;101187.45;1589538;89;21214;-75
2021/06/12 07:46:08;;;;;;;10.15;6.12;;;;;;;32.39;41.86;101194.04;1592144;88;21752;-71
2021/06/12 07:48:41;;;;;;;;;;;;;;;32.50;41.25;101198.45;1603559;89;21814;-74
2021/06/12 07:51:13;;;;;;;16.25;5.80;;;;;;;32.44;41.41;101199.44;1610758;87;20604;-72
2021/06/12 07:53:46;;;;;;;9.18;5.60;;;;;;;32.37;42.24;101199.37;1612050;88;21412;-74
2021/06/12 07:56:20;;;;;;;11.65;5.33;;;;;;;32.28;42.41;101197.41;1613278;88;21242;-75
2021/06/12 07:58:53;;;;;;;17.30;5.47;;;;;;;32.01;41.68;101195.85;1612558;88;21407;-75
2021/06/12 08:01:29;;;;;;;12.00;4.72;;;;;;;31.74;42.91;101200.05;1616534;88;21261;-72
2021/06/12 08:04:05;;;;;;;8.28;4.72;;;;;;;31.49;42.78;101201.70;1610605;88;21299;-74
2021/06/12 08:06:37;;;;;;;11.08;5.42;;;;;;;31.28;42.30;101203.43;1609139;88;21378;-74
2021/06/12 08:09:11;;;;;;;25.20;5.65;;;;;;;31.12;41.97;101199.89;1606119;88;21439;-75
2021/06/12 08:11:44;;;;;;;8.65;4.97;;;;;;;30.89;41.88;101201.38;1596287;88;21783;-69
2021/06/12 08:14:17;;;;;;;12.93;5.58;;;;;;;30.64;43.21;101200.73;1614250;88;21424;-75
2021/06/12 08:16:50;;;;;;;9.15;4.33;;;;;;;30.38;42.92;101192.03;1619844;88;21404;-70
2021/06/12 08:19:23;;;;;;;;;;;;;;;30.16;43.79;101190.80;1604876;88;21244;-67
2021/06/12 08:21:55;;;;;;;11.12;5.22;;;;;;;29.94;44.96;101180.67;1624798;88;20228;-73
2021/06/12 08:24:35;;;;;;;10.18;5.80;;;;;;;29.72;45.01;101186.57;1646590;87;21269;-72
2021/06/12 08:27:09;;;;;;;16.73;6.30;;;;;;;29.51;45.00;101191.82;1649091;86;21684;-68
2021/06/12 08:29:49;;;;;;;12.60;5.90;;;;;;;29.21;45.39;101195.02;1609128;87;21297;-72
2021/06/12 08:32:19;;;;;;;13.18;6.75;;;;;;;28.88;46.50;101195.19;1628992;87;21807;-72
2021/06/12 08:34:51;;;;;;;14.35;6.47;;;;;;;28.67;47.71;101197.53;1649580;87;21354;-72
2021/06/12 08:37:26;;;;;;;11.88;6.42;;;;;;;28.49;47.99;101204.20;1627446;88;21363;-73
2021/06/12 08:40:01;;;;;;;13.70;6.40;;;;;;;28.33;48.65;101203.34;1628648;87;21274;-71
2021/06/12 08:42:34;;;;;;;14.63;6.25;;;;;;;28.16;48.71;101205.70;1637974;85;21226;-72
2021/06/12 08:45:07;;;;;;;;;;;;;;;27.95;48.97;101206.54;1624341;88;21289;-70
2021/06/12 08:47:41;;;;;;;13.03;7.30;;;;;;;27.76;49.04;101203.50;1627855;86;20280;-72
2021/06/12 08:50:14;;;;;;;15.63;6.25;;;;;;;27.58;49.31;101202.95;1649058;86;21413;-72
2021/06/12 08:52:47;;;;;;;20.45;7.30;;;;;;;27.45;49.82;101204.80;1649951;86;21341;-71
2021/06/12 08:55:23;;;;;;;13.10;6.62;;;;;;;27.35;50.52;101211.00;1651514;85;21460;-73
2021/06/12 08:57:57;;;;;;;19.60;7.22;;;;;;;27.28;50.96;101198.75;1646942;86;21231;-72
2021/06/12 09:00:30;;;;;;;;;;;;;;;27.32;50.92;101203.76;1617034;88;21766;-73
2021/06/12 09:03:22;;;;;;;18.50;7.22;;;;;;;27.33;49.60;101195.66;1652384;86;20216;-69
2021/06/12 09:06:02;;;;;;;18.00;8.10;;;;;;;27.38;49.98;101202.32;1652151;86;21509;-72
2021/06/12 09:08:42;;;;;;;12.63;7.67;;;;;;;27.45;50.79;101201.95;1648584;86;21829;-71
2021/06/12 09:11:19;;;;;;;21.87;9.28;;;;;;;27.40;50.20;101195.06;1649037;86;21263;-72
2021/06/12 09:13:58;;;;;;;15.40;9.00;;;;;;;27.17;50.57;101198.20;1648174;86;22331;-70
2021/06/12 09:16:43;;;;;;;19.85;7.17;;;;;;;26.91;51.35;101197.73;1649446;85;21202;-68
2021/06/12 09:19:22;;;;;;;11.80;6.83;;;;;;;26.82;51.45;101197.62;1674864;85;21431;-74
2021/06/12 09:22:00;;;;;;;16.75;7.95;;;;;;;26.73;52.18;101194.05;1621552;87;21326;-67
2021/06/12 09:24:49;;;;;;;20.02;9.18;;;;;;;26.65;52.39;101195.00;1622920;86;21384;-71
2021/06/12 09:27:20;;;;;;;23.07;9.03;;;;;;;26.56;53.00;101193.69;1618142;88;21290;-72
2021/06/12 09:29:54;;;;;;;18.73;9.20;;;;;;;26.50;53.35;101191.38;1630267;87;21771;-72
2021/06/12 09:32:32;;;;;;;21.87;9.00;;;;;;;26.45;53.91;101198.15;1593640;88;21249;-73
2021/06/12 09:35:08;;;;;;;16.02;8.60;;;;;;;26.38;54.39;101197.06;1618833;88;21290;-72
2021/06/12 09:37:42;;;;;;;22.27;8.00;;;;;;;26.28;54.38;101199.78;1614296;88;21223;-70
2021/06/12 09:40:17;;;;;;;18.12;7.42;;;;;;;26.15;54.70;101194.43;1618651;88;21356;-74
2021/06/12 09:42:55;;;;;;;16.93;8.13;;;;;;;26.04;55.15;101190.36;1626244;87;21211;-74
2021/06/12 09:45:32;;;;;;;18.20;8.00;;;;;;;25.98;55.94;101191.77;1632143;87;21270;-71
2021/06/12 09:48:14;;;;;;;16.73;8.25;;;;;;;25.88;56.04;101190.16;1596771;88;21274;-73
2021/06/12 09:50:48;;;;;;;23.10;9.23;;;;;;;25.86;58.59;101191.12;1626062;87;21357;-69
2021/06/12 09:53:37;;;;;;;15.45;7.78;;;;;;;25.92;59.39;101188.90;1612860;89;21226;-70
2021/06/12 09:55:59;;;;;;;24.43;8.35;;;;;;;25.97;59.12;101190.11;1632996;87;21407;-70
2021/06/12 09:58:34;;;;;;;14.75;7.97;;;;;;;25.98;59.15;101186.08;1632734;87;21396;-74
2021/06/12 10:01:12;;;;;;;19.05;8.35;;;;;;;25.97;60.10;101182.98;1610442;88;21381;-68
2021/06/12 10:03:45;;;;;;;11.97;7.70;;;;;;;25.95;60.35;101180.48;1588288;90;21245;-69
2021/06/12 10:06:23;;;;;;;10.60;7.05;;;;;;;25.99;59.74;101184.88;1637767;86;21504;-70
2021/06/12 10:08:56;;;;;;;10.13;6.40;;;;;;;26.04;59.14;101182.63;1599311;89;21274;-67
2021/06/12 10:11:30;;;;;;;27.77;8.28;;;;;;;26.14;58.97;101184.23;1591280;89;21212;-68
2021/06/12 10:14:05;;;;;;;16.32;6.72;;;;;;;26.22;59.25;101183.28;1602998;88;21428;-67
2021/06/12 10:16:41;;;;;;;13.80;6.75;;;;;;;26.30;58.40;101179.48;1633397;86;21225;-66
2021/06/12 10:19:19;;;;;;;15.40;7.15;;;;;;;26.30;57.94;101178.91;1600218;89;21762;-67
2021/06/12 10:21:51;;;;;;;12.13;7.40;;;;;;;26.23;57.13;101175.82;1633444;86;21760;-70
2021/06/12 10:24:25;;;;;;;27.30;9.90;;;;;;;26.18;56.52;101165.23;1636896;86;21230;-65
2021/06/12 10:26:58;;;;;;;22.80;9.30;;;;;;;26.19;56.89;101166.89;1635113;87;21415;-69
2021/06/12 10:29:31;;;;;;;18.23;9.20;;;;;;;26.23;56.83;101167.86;1639854;87;21218;-70
2021/06/12 10:32:04;;;;;;;17.92;7.42;;;;;;;26.25;57.52;101163.47;1639259;86;21222;-69
2021/06/12 10:34:39;;;;;;;11.45;7.05;;;;;;;26.28;58.09;101162.74;1630551;86;21357;-69
2021/06/12 10:37:14;;;;;;;12.88;5.67;;;;;;;26.31;58.25;101170.60;1618071;88;21286;-68
2021/06/12 10:39:47;;;;;;;8.58;5.40;;;;;;;26.37;57.71;101162.64;1598679;88;21340;-66
2021/06/12 10:42:23;;;;;;;10.60;6.12;;;;;;;26.40;54.67;101156.25;1618610;87;21418;-70
2021/06/12 10:44:57;;;;;;;11.08;5.95;;;;;;;26.43;54.35;101149.82;1621869;87;21326;-66
2021/06/12 10:47:46;;;;;;;11.22;5.55;;;;;;;26.45;54.77;101146.86;1628324;87;21227;-69
2021/06/12 10:50:32;;;;;;;9.00;5.83;;;;;;;26.49;54.93;101147.83;1618232;88;21352;-68
2021/06/12 10:53:33;;;;;;;10.95;5.45;;;;;;;26.56;56.34;101146.66;1618411;88;21234;-69
2021/06/12 10:55:57;;;;;;;20.37;6.40;;;;;;;26.61;56.77;101140.73;1617915;88;21360;-66
2021/06/12 10:58:49;;;;;;;27.77;13.05;;;;;;;26.63;56.13;101136.10;1626755;87;21225;-67
2021/06/12 11:01:22;;;;;;;30.57;25.85;;;;;;;26.68;56.09;101133.83;1618649;87;21286;-68
2021/06/12 11:07:06;;;;;;;17.27;8.70;;;;;;;26.76;56.00;101135.71;1644827;86;21356;-68
2021/06/12 11:09:36;;;;;;;31.77;7.05;;;;;;;26.84;55.67;101135.36;1630859;87;21400;-72
